ヘルシンキ・ヴァンター国際空港の過去48時間の天気

ヘルシンキ・ヴァンター国際空港 (Helsinki-Vantaa)

現在時刻: 7/22 05:21 EEST (7/22 02:21 UTC) 以下の時間は現地時間です。

過去48時間のMETAR気象情報
時間 風向 風速(m/s) 視程 気温(℃) 湿度(%) 気圧(hPa) 天気現象
22 04:50 東北東 2 10km以上 15 94 1015
22 04:20 東北東 3 10km以上 14 94 1015
22 03:50 東北東 2 10km以上 15 94 1015
22 03:20 東北東 3 10km以上 15 94 1015
22 02:50 東北東 3 10km以上 15 94 1015
22 02:20 3 10km以上 16 94 1016
22 01:50 東北東 2 10km以上 15 94 1016
22 01:20 東北東 2 10km以上 15 94 1016
22 00:50 東北東 2 10km以上 15 94 1016
22 00:20 2 10km以上 15 94 1016
21 23:50 2 10km以上 16 88 1016
21 23:20 3 10km以上 19 83 1016
21 22:50 東南東 3 10km以上 19 78 1016
21 22:20 東南東 4 10km以上 20 73 1016
21 21:50 南東 4 10km以上 21 64 1016
21 21:20 東南東 4 10km以上 22 53 1015
21 20:50 東南東 3 10km以上 24 41 1015
21 20:20 南東 3 10km以上 24 36 1015
21 19:50 南南東 3 10km以上 25 36 1016
21 19:20 南南東 4 10km以上 25 36 1016
21 18:50 南南東 5 10km以上 25 39 1016
21 18:20 南南東 5 10km以上 25 39 1016
21 17:50 南南東 5 10km以上 25 36 1016
21 17:20 5 10km以上 25 36 1016
21 16:50 南南東 5 10km以上 26 37 1016
21 16:20 南南東 6 10km以上 26 39 1016
21 15:50 5 10km以上 25 39 1016
21 15:20 南南東 4 10km以上 26 39 1016
21 14:50 3 10km以上 26 39 1017
21 14:20 4 10km以上 26 39 1017
21 13:50 南南東 3 10km以上 25 41 1017
21 13:20 3 10km以上 26 39 1017
21 12:50 南南東 3 10km以上 25 41 1017
21 12:20 3 10km以上 25 44 1017
21 11:50 3 10km以上 24 41 1017
21 11:20 不定 2 10km以上 25 41 1017
21 10:50 不定 2 10km以上 24 44 1017
21 10:20 不定 1 10km以上 24 44 1017
21 09:50 不定 1 10km以上 24 50 1017
21 09:20 不定 1 10km以上 23 50 1017
21 08:50 不定 1 10km以上 22 60 1017
21 08:20 1 10km以上 21 53 1017
21 07:50 不定 1 10km以上 20 60 1016
21 07:20 不定 1 10km以上 19 64 1017
21 06:50 2 10km以上 15 88 1016
21 06:20 北西 2 10km以上 13 94 1016
21 05:50 不定 1 10km以上 11 94 1016
21 05:20 北西 2 10km以上 12 94 1016
21 04:50 北北西 1 10km以上 11 94 1016
21 04:20 北北西 2 10km以上 11 94 1016
21 03:50 北北西 2 10km以上 11 100 1016
21 03:20 北西 1 10km以上 12 94 1016
21 02:50 西 1 10km以上 12 100 1016
21 02:20 西北西 2 10km以上 12 94 1016
21 01:50 北東 2 10km以上 12 94 1016
21 01:20 不定 1 10km以上 13 94 1016
21 00:50 不定 1 10km以上 14 94 1016
21 00:20 不定 1 10km以上 14 88 1016
20 23:50 不定 1 10km以上 15 88 1016
20 23:20 不定 1 10km以上 16 82 1016
20 22:50 静穏 0 10km以上 17 83 1015
20 22:20 不定 1 10km以上 19 73 1015
20 21:50 南南西 2 10km以上 23 53 1015
20 21:20 南西 2 10km以上 22 57 1015
20 20:50 南西 2 10km以上 23 53 1015
20 20:20 南南東 3 10km以上 24 47 1015
20 19:50 不定 1 10km以上 24 41 1015
20 19:20 北北西 3 10km以上 23 44 1015
20 18:50 北北西 3 10km以上 24 38 1014
20 18:20 北北西 3 10km以上 25 39 1014
20 17:50 北東 2 10km以上 25 39 1014
20 17:20 不定 2 10km以上 25 41 1014
20 16:50 3 10km以上 25 41 1015
20 16:20 3 10km以上 25 39 1014
20 15:50 北西 3 10km以上 24 41 1015
20 15:20 北北西 4 10km以上 24 41 1014
20 14:50 北北西 4 10km以上 24 44 1014
20 14:20 4 10km以上 24 41 1014
20 13:50 北西 3 10km以上 23 44 1014
20 13:20 3 10km以上 23 44 1014
20 12:50 北北西 3 10km以上 23 44 1014
20 12:20 北北西 3 10km以上 22 50 1014
20 11:50 北西 5 10km以上 22 50 1014
20 11:20 北北西 4 10km以上 22 50 1014
20 10:50 北北西 4 10km以上 21 56 1013
20 10:20 北北西 4 10km以上 21 56 1013
20 09:50 北北西 4 10km以上 20 60 1013
20 09:20 北北西 4 10km以上 19 64 1013
20 08:50 北北西 4 10km以上 19 68 1013
20 08:20 北北西 4 10km以上 18 68 1013
20 07:50 北西 4 10km以上 16 72 1013
20 07:20 北北西 3 10km以上 15 72 1013
20 06:50 北西 3 10km以上 14 77 1013
20 06:20 西北西 2 10km以上 13 82 1012
20 05:50 西北西 2 10km以上 12 82 1012
EFHK 220150Z 06004KT CAVOK 15/14 Q1015 NOSIG
EFHK 220120Z 07005KT 040V100 CAVOK 14/13 Q1015 NOSIG
EFHK 220050Z 06004KT CAVOK 15/14 Q1015 NOSIG
EFHK 220020Z 07005KT CAVOK 15/14 Q1015 NOSIG
EFHK 212350Z 07005KT 030V140 CAVOK 15/14 Q1015 NOSIG
EFHK 212320Z 08005KT CAVOK 16/15 Q1016 NOSIG
EFHK 212250Z 07003KT CAVOK 15/14 Q1016 NOSIG
EFHK 212220Z 06004KT CAVOK 15/14 Q1016 NOSIG
EFHK 212150Z 07003KT 020V110 CAVOK 15/14 Q1016 NOSIG
EFHK 212120Z 08003KT 050V150 CAVOK 15/14 Q1016 NOSIG
EFHK 212050Z 09004KT 040V130 CAVOK 16/14 Q1016 NOSIG
EFHK 212020Z 10005KT 070V130 CAVOK 19/16 Q1016 NOSIG
EFHK 211950Z 11005KT 070V130 CAVOK 19/15 Q1016 NOSIG
EFHK 211920Z 12007KT CAVOK 20/15 Q1016 NOSIG
EFHK 211850Z 13008KT CAVOK 21/14 Q1016 NOSIG
EFHK 211820Z 11007KT CAVOK 22/12 Q1015 NOSIG
EFHK 211750Z 12006KT CAVOK 24/10 Q1015 NOSIG
EFHK 211720Z 14006KT CAVOK 24/08 Q1015 NOSIG
EFHK 211650Z 15006KT CAVOK 25/09 Q1016 NOSIG
EFHK 211620Z 15007KT 120V180 CAVOK 25/09 Q1016 NOSIG
EFHK 211550Z 15009KT 120V190 CAVOK 25/10 Q1016 NOSIG
EFHK 211520Z 16009KT 120V190 CAVOK 25/10 Q1016 NOSIG
EFHK 211450Z 15009KT 120V190 CAVOK 25/09 Q1016 NOSIG
EFHK 211420Z 17010KT CAVOK 25/09 Q1016 NOSIG
EFHK 211350Z 15010KT CAVOK 26/10 Q1016 NOSIG
EFHK 211320Z 16011KT CAVOK 26/11 Q1016 NOSIG
EFHK 211250Z 17010KT 120V210 CAVOK 25/10 Q1016 NOSIG
EFHK 211220Z 16008KT 120V190 CAVOK 26/11 Q1016 NOSIG
EFHK 211150Z VRB06KT CAVOK 26/11 Q1017 NOSIG
EFHK 211120Z 17008KT 110V230 CAVOK 26/11 Q1017 NOSIG
EFHK 211050Z 16006KT 100V210 CAVOK 25/11 Q1017 NOSIG
EFHK 211020Z 17006KT 140V210 CAVOK 26/11 Q1017 NOSIG
EFHK 210950Z 15005KT 080V230 CAVOK 25/11 Q1017 NOSIG
EFHK 210920Z VRB05KT CAVOK 25/12 Q1017 NOSIG
EFHK 210850Z 09005KT 050V160 CAVOK 24/10 Q1017 NOSIG
EFHK 210820Z VRB03KT CAVOK 25/11 Q1017 NOSIG
EFHK 210750Z VRB03KT 9999 FEW045 24/11 Q1017 NOSIG
EFHK 210720Z VRB02KT 9999 FEW045 24/11 Q1017 NOSIG
EFHK 210650Z VRB02KT CAVOK 24/13 Q1017 NOSIG
EFHK 210620Z VRB02KT CAVOK 23/12 Q1017 NOSIG
EFHK 210550Z VRB02KT CAVOK 22/14 Q1017 NOSIG
EFHK 210520Z 36002KT CAVOK 21/11 Q1017 NOSIG
EFHK 210450Z VRB01KT CAVOK 20/12 Q1016 NOSIG
EFHK 210420Z VRB02KT CAVOK 19/12 Q1017 NOSIG
EFHK 210350Z 35003KT 270V070 CAVOK 15/13 Q1016 NOSIG
EFHK 210320Z 32003KT CAVOK 13/12 Q1016 NOSIG
EFHK 210250Z VRB02KT CAVOK 11/10 Q1016 NOSIG
EFHK 210220Z 31003KT 250V010 CAVOK 12/11 Q1016 NOSIG
EFHK 210150Z 33002KT CAVOK 11/10 Q1016 NOSIG
EFHK 210120Z 34003KT 290V020 CAVOK 11/10 Q1016 NOSIG
EFHK 210050Z 34003KT CAVOK 11/11 Q1016 NOSIG
EFHK 210020Z 32002KT CAVOK 12/11 Q1016 NOSIG
EFHK 202350Z 28001KT CAVOK 12/12 Q1016 NOSIG
EFHK 202320Z 30003KT CAVOK 12/11 Q1016 NOSIG
EFHK 202250Z 04003KT CAVOK 12/11 Q1016 NOSIG
EFHK 202220Z VRB02KT CAVOK 13/12 Q1016 NOSIG
EFHK 202150Z VRB01KT CAVOK 14/13 Q1016 NOSIG
EFHK 202120Z VRB02KT CAVOK 14/12 Q1016 NOSIG
EFHK 202050Z VRB01KT CAVOK 15/13 Q1016 NOSIG
EFHK 202020Z VRB01KT CAVOK 16/13 Q1016 NOSIG
EFHK 201950Z 00000KT CAVOK 17/14 Q1015 NOSIG
EFHK 201920Z VRB02KT CAVOK 19/14 Q1015 NOSIG
EFHK 201850Z 21003KT CAVOK 23/13 Q1015 NOSIG
EFHK 201820Z 22003KT CAVOK 22/13 Q1015 NOSIG
EFHK 201750Z 23004KT CAVOK 23/13 Q1015 NOSIG
EFHK 201720Z 16005KT 110V190 CAVOK 24/12 Q1015 NOSIG
EFHK 201650Z VRB01KT CAVOK 24/10 Q1015 NOSIG
EFHK 201620Z 33005KT CAVOK 23/10 Q1015 NOSIG
EFHK 201550Z 34005KT CAVOK 24/09 Q1014 NOSIG
EFHK 201520Z 34005KT 300V030 CAVOK 25/10 Q1014 NOSIG
EFHK 201450Z 05004KT 330V110 CAVOK 25/10 Q1014 NOSIG
EFHK 201420Z VRB04KT CAVOK 25/11 Q1014 NOSIG
EFHK 201350Z VRB06KT CAVOK 25/11 Q1015 NOSIG
EFHK 201320Z VRB05KT CAVOK 25/10 Q1014 NOSIG
EFHK 201250Z 32005KT 260V040 CAVOK 24/10 Q1015 NOSIG
EFHK 201220Z 34008KT 280V040 CAVOK 24/10 Q1014 NOSIG
EFHK 201150Z 33008KT 290V010 CAVOK 24/11 Q1014 NOSIG
EFHK 201120Z 35007KT 320V030 CAVOK 24/10 Q1014 NOSIG
EFHK 201050Z 32006KT 280V020 CAVOK 23/10 Q1014 NOSIG
EFHK 201020Z VRB05KT CAVOK 23/10 Q1014 NOSIG
EFHK 200950Z 34006KT 290V050 CAVOK 23/10 Q1014 NOSIG
EFHK 200920Z 33006KT 250V030 CAVOK 22/11 Q1014 NOSIG
EFHK 200850Z 32009KT 280V350 9999 FEW048 22/11 Q1014 NOSIG
EFHK 200820Z 34008KT 280V010 9999 FEW046 22/11 Q1014 NOSIG
EFHK 200750Z 34008KT 310V030 9999 FEW038 21/12 Q1013 NOSIG
EFHK 200720Z 34008KT 9999 FEW034 21/12 Q1013 NOSIG
EFHK 200650Z 33008KT 300V010 CAVOK 20/12 Q1013 NOSIG
EFHK 200620Z 34007KT CAVOK 19/12 Q1013 NOSIG
EFHK 200550Z 33007KT CAVOK 19/13 Q1013 NOSIG
EFHK 200520Z 33007KT CAVOK 18/12 Q1013 NOSIG
EFHK 200450Z 31007KT CAVOK 16/11 Q1013 NOSIG
EFHK 200420Z 33006KT CAVOK 15/10 Q1013 NOSIG
EFHK 200350Z 31005KT CAVOK 14/10 Q1013 NOSIG
EFHK 200320Z 30003KT CAVOK 13/10 Q1012 NOSIG
EFHK 200250Z 30003KT 270V340 CAVOK 12/09 Q1012 NOSIG